createdAt,value
2018-07-01T00:03:23.401Z,99.00
2018-07-01T00:08:26.461Z,99.70
2018-07-01T00:13:29.496Z,99.90
2018-07-01T00:18:32.544Z,99.90
2018-07-01T00:23:35.597Z,99.90
2018-07-01T00:28:38.670Z,99.90
2018-07-01T00:33:41.830Z,99.90
2018-07-01T00:38:44.902Z,99.90
2018-07-01T00:43:47.943Z,99.90
2018-07-01T00:54:57.452Z,99.90
2018-07-01T01:00:00.498Z,99.90
2018-07-01T01:05:03.545Z,99.90
2018-07-01T01:10:06.575Z,99.90
2018-07-01T01:15:09.615Z,99.90
2018-07-01T01:20:12.675Z,99.90
2018-07-01T01:25:15.748Z,99.90
2018-07-01T01:30:18.831Z,99.90
2018-07-01T01:35:21.880Z,99.90
2018-07-01T01:40:28.320Z,99.90
2018-07-01T01:45:37.144Z,99.90
2018-07-01T01:50:45.822Z,99.90
2018-07-01T01:55:52.825Z,99.90
2018-07-01T02:01:00.140Z,99.90
2018-07-01T02:06:11.454Z,99.90
2018-07-01T02:11:14.495Z,99.90
2018-07-01T02:16:27.568Z,99.90
2018-07-01T02:21:30.773Z,99.90
2018-07-01T02:26:33.936Z,99.90
2018-07-01T02:31:36.996Z,99.90
2018-07-01T02:36:40.046Z,99.90
2018-07-01T02:46:46.062Z,99.90
2018-07-01T02:51:49.087Z,99.90
2018-07-01T02:56:52.363Z,99.90
2018-07-01T03:01:55.438Z,99.90
2018-07-01T03:06:58.552Z,99.90
2018-07-01T03:12:01.585Z,99.90
2018-07-01T03:17:04.660Z,99.90
2018-07-01T03:22:07.848Z,99.90
2018-07-01T03:27:10.885Z,99.90
2018-07-01T03:32:14.065Z,99.90
2018-07-01T03:37:17.077Z,99.90
2018-07-01T03:42:20.103Z,99.90
2018-07-01T03:47:23.209Z,99.90
2018-07-01T03:52:26.249Z,99.90
2018-07-01T03:57:29.299Z,99.90
2018-07-01T04:02:32.304Z,99.90
2018-07-01T04:07:35.379Z,99.90
2018-07-01T04:12:38.448Z,99.90
2018-07-01T04:17:41.500Z,99.90
2018-07-01T04:22:44.516Z,99.90
2018-07-01T04:27:47.550Z,99.90
2018-07-01T04:32:50.658Z,99.90
2018-07-01T04:37:53.684Z,99.90
2018-07-01T04:42:56.692Z,99.90
2018-07-01T04:47:59.739Z,99.90
2018-07-01T04:53:02.763Z,99.90
2018-07-01T05:03:10.026Z,99.90
2018-07-01T05:08:13.206Z,99.90
2018-07-01T05:13:16.232Z,99.90
2018-07-01T05:23:22.213Z,99.90
2018-07-01T05:28:25.303Z,99.90
2018-07-01T05:33:28.465Z,99.90
2018-07-01T05:38:32.048Z,99.90
2018-07-01T05:43:35.877Z,99.90
2018-07-01T05:48:38.939Z,99.90
2018-07-01T05:53:42.045Z,99.90
2018-07-01T05:58:45.059Z,99.90
2018-07-01T06:08:51.056Z,96.80
2018-07-01T06:13:54.461Z,94.50
2018-07-01T06:18:57.524Z,95.00
2018-07-01T06:24:00.576Z,93.80
2018-07-01T06:29:03.631Z,93.40
2018-07-01T06:34:06.727Z,91.70
2018-07-01T06:39:11.320Z,91.20
2018-07-01T06:44:14.577Z,91.80
2018-07-01T06:49:17.694Z,91.70
2018-07-01T06:54:20.764Z,91.40
2018-07-01T06:59:24.036Z,91.10
2018-07-01T07:04:27.613Z,91.30
2018-07-01T07:09:31.053Z,90.60
2018-07-01T07:14:34.101Z,89.30
2018-07-01T07:19:38.223Z,90.40
2018-07-01T07:24:41.276Z,90.80
2018-07-01T07:29:44.302Z,89.80
2018-07-01T07:34:47.530Z,88.40
2018-07-01T07:39:50.596Z,89.80
2018-07-01T07:44:53.771Z,86.70
2018-07-01T07:49:57.011Z,90.60
2018-07-01T07:55:00.119Z,89.20
2018-07-01T08:00:03.179Z,85.60
2018-07-01T08:05:06.244Z,81.40
2018-07-01T08:10:09.634Z,79.80
2018-07-01T08:15:12.731Z,77.60
2018-07-01T08:20:15.988Z,78.60
2018-07-01T08:25:19.431Z,78.10
2018-07-01T08:30:22.482Z,79.60
2018-07-01T08:35:25.849Z,82.20
2018-07-01T08:40:29.006Z,82.90
2018-07-01T08:45:32.628Z,79.70
2018-07-01T08:50:35.689Z,71.80
2018-07-01T08:55:38.835Z,74.40
2018-07-01T09:00:41.867Z,74.60
2018-07-01T09:05:44.959Z,78.10
2018-07-01T09:10:50.239Z,81.90
2018-07-01T09:15:53.492Z,80.90
2018-07-01T09:20:56.643Z,78.60
2018-07-01T09:25:59.708Z,76.80
2018-07-01T09:31:02.853Z,77.80
2018-07-01T09:36:06.356Z,78.10
2018-07-01T09:41:09.561Z,76.10
2018-07-01T09:46:12.718Z,73.50
2018-07-01T09:51:15.759Z,73.10
2018-07-01T09:56:19.150Z,75.00
2018-07-01T10:01:22.431Z,74.40
2018-07-01T10:06:26.065Z,73.80
2018-07-01T10:11:29.235Z,71.40
2018-07-01T10:16:32.252Z,73.10
2018-07-01T10:21:35.357Z,71.10
2018-07-01T10:26:38.635Z,66.70
2018-07-01T10:31:42.911Z,65.60
2018-07-01T10:36:45.977Z,67.40
2018-07-01T10:41:48.988Z,67.40
2018-07-01T10:46:52.185Z,68.20
2018-07-01T10:51:55.344Z,65.30
2018-07-01T10:56:58.431Z,69.00
2018-07-01T11:02:01.712Z,66.80
2018-07-01T11:07:04.869Z,70.00
2018-07-01T11:12:07.922Z,67.40
2018-07-01T11:17:10.979Z,69.10
2018-07-01T11:22:14.036Z,65.50
2018-07-01T11:27:17.241Z,64.40
2018-07-01T11:32:20.423Z,62.30
2018-07-01T11:37:23.630Z,65.60
2018-07-01T11:42:26.690Z,63.30
2018-07-01T11:47:29.741Z,61.00
2018-07-01T11:52:32.801Z,64.00
2018-07-01T11:57:35.923Z,62.40
2018-07-01T12:02:38.984Z,61.50
2018-07-01T12:07:42.560Z,61.40
2018-07-01T12:12:45.667Z,63.00
2018-07-01T12:17:48.790Z,62.80
2018-07-01T12:22:51.893Z,64.40
2018-07-01T12:27:54.960Z,63.20
2018-07-01T12:32:58.063Z,57.80
2018-07-01T12:38:01.107Z,59.00
2018-07-01T12:43:04.241Z,57.90
2018-07-01T12:48:07.406Z,59.20
2018-07-01T12:53:10.580Z,57.60
2018-07-01T12:58:14.044Z,57.60
2018-07-01T13:03:17.076Z,59.20
2018-07-01T13:08:20.173Z,54.50
2018-07-01T13:13:23.236Z,54.40
2018-07-01T13:18:27.009Z,58.10
2018-07-01T13:23:30.293Z,58.60
2018-07-01T13:28:33.649Z,57.00
2018-07-01T13:38:39.624Z,61.00
2018-07-01T13:43:42.749Z,59.90
2018-07-01T13:48:45.822Z,60.00
2018-07-01T13:53:48.913Z,62.40
2018-07-01T13:58:52.029Z,65.80
2018-07-01T14:03:55.324Z,62.10
2018-07-01T14:08:58.499Z,62.30
2018-07-01T14:14:01.615Z,64.40
2018-07-01T14:19:04.837Z,63.50
2018-07-01T14:24:07.984Z,64.40
2018-07-01T14:29:11.136Z,64.00
2018-07-01T14:34:14.229Z,66.50
2018-07-01T14:39:17.310Z,65.00
2018-07-01T14:44:20.485Z,65.90
2018-07-01T14:49:23.727Z,62.80
2018-07-01T14:54:26.757Z,59.60
2018-07-01T15:04:32.781Z,67.30
2018-07-01T15:09:35.840Z,65.00
2018-07-01T15:14:38.984Z,62.80
2018-07-01T15:19:42.025Z,64.20
2018-07-01T15:24:45.110Z,62.20
2018-07-01T15:29:48.161Z,63.00
2018-07-01T15:34:51.220Z,66.90
2018-07-01T15:39:54.296Z,69.00
2018-07-01T15:44:58.764Z,69.90
2018-07-01T15:50:01.872Z,68.10
2018-07-01T15:55:05.033Z,68.70
2018-07-01T16:00:08.712Z,65.70
2018-07-01T16:05:11.771Z,67.20
2018-07-01T16:10:14.820Z,64.20
2018-07-01T16:15:17.887Z,65.30
2018-07-01T16:25:29.570Z,67.70
2018-07-01T16:30:32.646Z,68.10
2018-07-01T16:35:35.720Z,72.00
2018-07-01T16:40:38.822Z,71.10
2018-07-01T16:45:41.838Z,68.80
2018-07-01T16:50:45.000Z,67.80
2018-07-01T16:55:48.105Z,66.00
2018-07-01T17:00:51.260Z,66.40
2018-07-01T17:05:54.299Z,68.10
2018-07-01T17:10:57.612Z,66.70
2018-07-01T17:16:00.716Z,67.50
2018-07-01T17:21:03.928Z,69.80
2018-07-01T17:26:07.035Z,66.20
2018-07-01T17:31:15.541Z,66.20
2018-07-01T17:36:18.635Z,68.70
2018-07-01T17:41:21.747Z,69.60
2018-07-01T17:46:24.830Z,69.80
2018-07-01T17:51:27.911Z,72.60
2018-07-01T17:56:31.260Z,75.00
2018-07-01T18:01:34.325Z,75.50
2018-07-01T18:06:37.529Z,76.20
2018-07-01T18:11:40.617Z,75.70
2018-07-01T18:16:43.733Z,79.40
2018-07-01T18:22:04.613Z,78.40
2018-07-01T18:26:50.050Z,77.40
2018-07-01T18:31:53.143Z,76.80
2018-07-01T18:36:56.172Z,77.70
2018-07-01T18:41:59.225Z,77.80
2018-07-01T18:47:02.323Z,78.40
2018-07-01T18:52:06.345Z,78.20
2018-07-01T18:57:09.599Z,80.70
2018-07-01T19:02:12.688Z,80.60
2018-07-01T19:07:15.811Z,80.80
2018-07-01T19:12:19.209Z,78.10
2018-07-01T19:17:22.569Z,79.50
2018-07-01T19:22:25.649Z,80.60
2018-07-01T19:27:28.696Z,77.50
2018-07-01T19:32:32.783Z,79.00
2018-07-01T19:37:36.284Z,78.90
2018-07-01T19:42:40.477Z,78.70
2018-07-01T19:47:43.554Z,79.20
2018-07-01T19:52:47.000Z,80.00
2018-07-01T19:57:50.141Z,78.10
2018-07-01T20:02:53.424Z,78.00
2018-07-01T20:07:56.538Z,79.50
2018-07-01T20:12:59.614Z,81.10
2018-07-01T20:18:02.777Z,81.20
2018-07-01T20:23:05.904Z,82.90
2018-07-01T20:28:09.034Z,82.40
2018-07-01T20:33:12.121Z,83.10
2018-07-01T20:38:15.230Z,86.00
2018-07-01T20:43:18.317Z,86.40
2018-07-01T20:48:21.506Z,88.40
2018-07-01T20:53:24.617Z,90.40
2018-07-01T20:58:28.717Z,91.00
2018-07-01T21:03:32.021Z,91.80
2018-07-01T21:08:35.524Z,93.30
2018-07-01T21:13:38.885Z,93.80
2018-07-01T21:18:41.939Z,95.10
2018-07-01T21:23:44.998Z,95.30
2018-07-01T21:28:48.120Z,96.20
2018-07-01T21:33:51.241Z,97.20
2018-07-01T21:38:54.267Z,98.60
2018-07-01T21:43:58.364Z,99.50
2018-07-01T21:49:01.403Z,99.90
2018-07-01T21:54:05.616Z,99.90
2018-07-01T21:59:08.897Z,99.90
2018-07-01T22:04:12.039Z,99.90
2018-07-01T22:09:16.437Z,99.90
2018-07-01T22:14:25.248Z,99.90
2018-07-01T22:19:28.367Z,99.90
2018-07-01T22:24:32.705Z,99.90
2018-07-01T22:29:35.754Z,99.90
2018-07-01T22:34:38.860Z,99.90
2018-07-01T22:39:41.959Z,99.90
2018-07-01T22:44:45.027Z,99.90
2018-07-01T22:49:48.062Z,99.90
2018-07-01T22:59:54.503Z,99.90
2018-07-01T23:04:57.603Z,99.90
2018-07-01T23:10:00.677Z,99.90
2018-07-01T23:15:03.983Z,99.90
2018-07-01T23:20:07.243Z,99.90
2018-07-01T23:25:11.250Z,99.90
2018-07-01T23:35:17.146Z,99.90
2018-07-01T23:40:20.204Z,99.90
2018-07-01T23:45:23.317Z,99.90
2018-07-01T23:50:26.369Z,99.90
2018-07-01T23:55:29.462Z,99.90
